Time;durP1;ratioP1;P1;durP2;ratioP2;P2;SDS_P1;SDS_P2;PMS_P1;PMS_P2;Temp;Humidity;BMP_temperature;BMP_pressure;BME280_temperature;BME280_humidity;BME280_pressure;Samples;Min_cycle;Max_cycle;Signal;HPM_P1;HPM_P2
2022/10/14 00:00:17;;;;;;;8.63;3.88;;;9.00;99.90;;;;;;5065985;28;20048;-82
2022/10/14 00:02:46;;;;;;;11.00;3.92;;;9.00;99.90;;;;;;5079639;28;20044;-82
2022/10/14 00:05:13;;;;;;;10.32;4.25;;;9.00;99.90;;;;;;5065159;28;20056;-82
2022/10/14 00:07:40;;;;;;;6.45;3.50;;;9.00;99.90;;;;;;5060044;28;20531;-84
2022/10/14 00:10:08;;;;;;;6.25;2.90;;;9.00;99.90;;;;;;5075490;28;20052;-82
2022/10/14 00:12:35;;;;;;;6.65;3.15;;;9.00;99.90;;;;;;5075780;28;20051;-82
2022/10/14 00:15:02;;;;;;;13.70;3.53;;;9.10;99.90;;;;;;5091483;28;20068;-82
2022/10/14 00:17:31;;;;;;;6.47;3.33;;;9.10;99.90;;;;;;5115867;28;20092;-82
2022/10/14 00:20:00;;;;;;;9.07;3.80;;;9.00;99.90;;;;;;5076134;28;20117;-83
2022/10/14 00:22:27;;;;;;;7.88;3.60;;;9.10;99.90;;;;;;5056260;28;20144;-82
2022/10/14 00:24:54;;;;;;;5.63;3.65;;;9.10;99.90;;;;;;5059531;28;20060;-82
2022/10/14 00:27:21;;;;;;;8.13;4.00;;;9.10;99.90;;;;;;5062302;28;20404;-82
2022/10/14 00:29:49;;;;;;;7.20;3.80;;;9.10;99.90;;;;;;5065334;28;20201;-82
2022/10/14 00:32:16;;;;;;;6.68;3.85;;;9.10;99.90;;;;;;5060480;28;20051;-84
2022/10/14 00:34:43;;;;;;;5.60;4.05;;;9.10;99.90;;;;;;5050054;28;20124;-82
2022/10/14 00:37:12;;;;;;;7.80;4.15;;;9.10;99.90;;;;;;5063594;28;20135;-84
2022/10/14 00:39:40;;;;;;;7.20;4.15;;;9.10;99.90;;;;;;5072620;28;20064;-82
2022/10/14 00:42:12;;;;;;;7.07;4.30;;;9.10;99.90;;;;;;5051627;28;20057;-84
2022/10/14 00:45:01;;;;;;;5.82;4.13;;;9.10;99.90;;;;;;5056283;28;20152;-84
2022/10/14 00:47:29;;;;;;;9.05;4.15;;;9.10;99.90;;;;;;5051981;28;20073;-82
2022/10/14 00:49:59;;;;;;;7.57;3.90;;;9.20;99.90;;;;;;5056213;28;20048;-84
2022/10/14 00:52:32;;;;;;;5.75;3.80;;;9.20;99.90;;;;;;5067989;28;20056;-84
2022/10/14 00:55:02;;;;;;;7.60;3.88;;;9.10;99.90;;;;;;5072037;28;20072;-84
2022/10/14 00:57:31;;;;;;;5.63;3.83;;;9.10;99.90;;;;;;5073312;28;20052;-83
2022/10/14 01:00:04;;;;;;;6.43;3.78;;;9.10;99.90;;;;;;5070359;28;20140;-82
2022/10/14 01:02:32;;;;;;;6.30;3.20;;;9.00;99.90;;;;;;5072037;28;20055;-82
2022/10/14 01:05:01;;;;;;;10.00;3.67;;;9.00;99.90;;;;;;5067604;28;20041;-82
2022/10/14 01:07:39;;;;;;;8.50;4.03;;;9.00;99.90;;;;;;5070775;28;20527;-82
2022/10/14 01:10:13;;;;;;;6.60;4.20;;;9.00;99.90;;;;;;5068579;28;20107;-82
2022/10/14 01:12:55;;;;;;;14.32;3.85;;;9.00;99.90;;;;;;5071698;28;20043;-83
2022/10/14 01:15:34;;;;;;;6.60;3.78;;;9.00;99.90;;;;;;5073042;28;20060;-82
2022/10/14 01:18:15;;;;;;;8.43;4.03;;;9.10;99.90;;;;;;5072465;28;20036;-83
2022/10/14 01:20:53;;;;;;;8.18;4.57;;;9.00;99.90;;;;;;5055687;28;20053;-82
2022/10/14 01:23:51;;;;;;;6.65;3.65;;;9.10;99.90;;;;;;5059507;28;20135;-81
2022/10/14 01:26:35;;;;;;;6.55;3.80;;;9.10;99.90;;;;;;5075278;28;20146;-83
2022/10/14 01:29:18;;;;;;;11.45;4.00;;;9.20;99.90;;;;;;5071212;28;20039;-83
2022/10/14 01:31:59;;;;;;;7.15;3.47;;;9.10;99.90;;;;;;5056566;28;20048;-82
2022/10/14 01:34:33;;;;;;;7.43;4.10;;;9.10;99.90;;;;;;5073252;28;20573;-82
2022/10/14 01:37:04;;;;;;;4.93;3.65;;;9.10;99.90;;;;;;5054169;28;20048;-82
2022/10/14 01:39:36;;;;;;;11.82;4.20;;;9.10;99.90;;;;;;5063606;28;20041;-82
2022/10/14 01:42:07;;;;;;;6.70;4.38;;;9.10;99.90;;;;;;5053573;28;20140;-83
2022/10/14 01:44:38;;;;;;;8.15;3.20;;;9.20;99.90;;;;;;5074008;28;20051;-83
2022/10/14 01:47:13;;;;;;;9.93;3.90;;;9.10;99.90;;;;;;5084649;28;20071;-82
2022/10/14 01:49:44;;;;;;;;;;;9.10;99.90;;;;;;5049864;28;20424;-82
2022/10/14 01:52:18;;;;;;;8.57;5.00;;;9.10;99.90;;;;;;5053815;28;19928;-83
2022/10/14 01:54:49;;;;;;;9.98;3.95;;;9.00;99.90;;;;;;5069524;28;20045;-83
2022/10/14 01:57:20;;;;;;;7.22;4.43;;;9.00;99.90;;;;;;5043759;28;20420;-81
2022/10/14 01:59:47;;;;;;;10.13;4.68;;;9.00;99.90;;;;;;5062713;28;20056;-82
2022/10/14 02:02:18;;;;;;;8.25;5.03;;;8.90;99.90;;;;;;5083439;28;20049;-82
2022/10/14 02:04:45;;;;;;;9.45;4.85;;;8.90;99.90;;;;;;5063396;28;20143;-83
2022/10/14 02:07:19;;;;;;;10.73;5.45;;;8.90;99.90;;;;;;5053514;28;20494;-82
2022/10/14 02:09:57;;;;;;;9.15;5.15;;;8.80;99.90;;;;;;5086950;28;20043;-84
2022/10/14 02:12:37;;;;;;;14.10;5.05;;;8.80;99.90;;;;;;5047114;28;20052;-83
2022/10/14 02:15:15;;;;;;;11.70;5.30;;;8.80;99.90;;;;;;5053732;28;20494;-83
2022/10/14 02:17:52;;;;;;;6.53;5.43;;;8.80;99.90;;;;;;5071455;28;20149;-84
2022/10/14 02:20:25;;;;;;;8.43;5.15;;;8.70;99.90;;;;;;5066777;28;20669;-84
2022/10/14 02:23:17;;;;;;;10.13;5.60;;;8.70;99.90;;;;;;5063134;28;20060;-82
2022/10/14 02:25:47;;;;;;;9.27;5.60;;;8.60;99.90;;;;;;5063844;28;20059;-83
2022/10/14 02:28:18;;;;;;;8.95;5.18;;;8.60;99.90;;;;;;5069196;28;20585;-83
2022/10/14 02:30:50;;;;;;;9.77;5.97;;;8.60;99.90;;;;;;5067981;28;20044;-84
2022/10/14 02:33:22;;;;;;;12.95;6.25;;;8.70;99.90;;;;;;5058798;28;20056;-84
2022/10/14 02:35:50;;;;;;;9.93;5.45;;;8.70;99.90;;;;;;5079221;28;20394;-82
2022/10/14 02:38:20;;;;;;;8.52;5.45;;;8.70;99.90;;;;;;5051071;28;20187;-81
2022/10/14 02:40:50;;;;;;;11.10;5.85;;;8.70;99.90;;;;;;5057838;28;20049;-81
2022/10/14 02:43:19;;;;;;;9.93;5.80;;;8.70;99.90;;;;;;5055633;28;20474;-81
2022/10/14 02:45:46;;;;;;;10.90;6.07;;;8.70;99.90;;;;;;5070747;28;20041;-81
2022/10/14 02:48:14;;;;;;;9.52;5.20;;;8.70;99.90;;;;;;5087045;28;20428;-79
2022/10/14 02:50:43;;;;;;;8.93;5.10;;;8.60;99.90;;;;;;5059872;28;20037;-81
2022/10/14 02:53:14;;;;;;;8.68;6.22;;;8.60;99.90;;;;;;5087621;28;20045;-81
2022/10/14 02:55:45;;;;;;;10.30;6.20;;;8.50;99.90;;;;;;5069406;28;20135;-80
2022/10/14 02:58:12;;;;;;;7.75;5.47;;;8.50;99.90;;;;;;5046322;28;20140;-81
2022/10/14 03:00:39;;;;;;;10.60;6.53;;;8.50;99.90;;;;;;5062190;28;20055;-81
2022/10/14 03:03:06;;;;;;;13.05;6.45;;;8.50;99.90;;;;;;5069328;28;20045;-81
2022/10/14 03:05:34;;;;;;;10.95;5.90;;;8.40;99.90;;;;;;5069189;28;20048;-81
2022/10/14 03:08:04;;;;;;;13.10;6.05;;;8.40;99.90;;;;;;5064853;28;20045;-80
2022/10/14 03:10:48;;;;;;;10.10;5.85;;;8.30;99.90;;;;;;5074490;28;20078;-81
2022/10/14 03:13:16;;;;;;;9.70;6.13;;;8.20;99.90;;;;;;5055736;28;20393;-80
2022/10/14 03:15:49;;;;;;;12.43;6.43;;;8.20;99.90;;;;;;5057852;28;20063;-81
2022/10/14 03:18:17;;;;;;;10.98;6.05;;;8.20;99.90;;;;;;5066332;28;20048;-82
2022/10/14 03:20:47;;;;;;;10.30;6.07;;;8.20;99.90;;;;;;5070652;28;20524;-81
2022/10/14 03:23:21;;;;;;;11.68;5.90;;;8.20;99.90;;;;;;5069111;28;20060;-82
2022/10/14 03:25:50;;;;;;;13.38;6.18;;;8.30;99.90;;;;;;5070358;28;20079;-81
2022/10/14 03:28:23;;;;;;;9.50;5.97;;;8.40;99.90;;;;;;5038303;28;20140;-81
2022/10/14 03:31:17;;;;;;;9.45;5.63;;;8.50;99.90;;;;;;5054242;28;20064;-81
2022/10/14 03:33:57;;;;;;;8.65;6.03;;;8.60;99.90;;;;;;5038995;28;20069;-82
2022/10/14 03:36:26;;;;;;;10.45;6.05;;;8.60;99.90;;;;;;5074170;28;20071;-82
2022/10/14 03:38:58;;;;;;;12.68;5.53;;;8.60;99.90;;;;;;5075006;28;20496;-82
2022/10/14 03:41:37;;;;;;;8.93;5.05;;;8.60;99.90;;;;;;5089961;28;20060;-81
2022/10/14 03:44:06;;;;;;;8.70;5.35;;;8.70;99.90;;;;;;5074711;28;20555;-82
2022/10/14 03:46:35;;;;;;;10.75;5.80;;;8.70;99.90;;;;;;5088864;28;20049;-82
2022/10/14 03:49:03;;;;;;;11.27;5.88;;;8.70;99.90;;;;;;5059757;28;20053;-84
2022/10/14 03:51:32;;;;;;;10.23;6.18;;;8.70;99.90;;;;;;5075745;28;20300;-81
2022/10/14 03:54:18;;;;;;;7.93;4.97;;;8.80;99.90;;;;;;5074590;28;20584;-83
2022/10/14 03:56:45;;;;;;;7.97;4.95;;;8.80;99.90;;;;;;5056806;28;20037;-83
2022/10/14 03:59:15;;;;;;;6.65;4.80;;;8.90;99.90;;;;;;5052288;28;20060;-86
2022/10/14 04:01:47;;;;;;;8.45;4.90;;;8.90;99.90;;;;;;5058641;28;20051;-85
2022/10/14 04:04:21;;;;;;;9.48;5.35;;;8.90;99.90;;;;;;5082384;28;20456;-83
2022/10/14 04:06:49;;;;;;;9.32;5.15;;;8.90;99.90;;;;;;5081642;28;20071;-76
2022/10/14 04:09:20;;;;;;;9.45;4.43;;;8.80;99.90;;;;;;5073039;28;20539;-78
2022/10/14 04:11:48;;;;;;;14.23;5.45;;;8.90;99.90;;;;;;5068534;28;20086;-77
2022/10/14 04:14:39;;;;;;;9.02;4.30;;;8.90;99.90;;;;;;5062189;28;20052;-78
2022/10/14 04:17:06;;;;;;;10.45;4.57;;;8.90;99.90;;;;;;5067188;28;20052;-78
2022/10/14 04:19:34;;;;;;;9.00;4.50;;;9.00;99.90;;;;;;5072810;28;20044;-78
2022/10/14 04:22:05;;;;;;;6.90;4.25;;;9.00;99.90;;;;;;5073290;28;20135;-80
2022/10/14 04:24:35;;;;;;;10.50;4.70;;;9.00;99.90;;;;;;5072783;28;20422;-80
2022/10/14 04:27:03;;;;;;;6.28;4.65;;;9.00;99.90;;;;;;5054335;28;20048;-78
2022/10/14 04:29:46;;;;;;;9.32;4.40;;;9.00;99.90;;;;;;5065784;28;20053;-78
2022/10/14 04:32:25;;;;;;;7.15;3.88;;;9.10;99.90;;;;;;5084132;28;20119;-78
2022/10/14 04:34:55;;;;;;;9.52;3.80;;;9.10;99.90;;;;;;5074540;28;20052;-80
2022/10/14 04:37:27;;;;;;;5.97;3.63;;;9.20;99.90;;;;;;5072702;28;20052;-79
2022/10/14 04:40:06;;;;;;;4.55;3.35;;;9.20;99.90;;;;;;5073136;28;20052;-79
2022/10/14 04:42:41;;;;;;;10.25;3.67;;;9.20;99.90;;;;;;5073848;28;20064;-81
2022/10/14 04:45:17;;;;;;;7.20;3.47;;;9.30;99.90;;;;;;5070607;28;20044;-81
2022/10/14 04:47:53;;;;;;;12.30;3.90;;;9.30;99.90;;;;;;5055767;28;20051;-81
2022/10/14 04:50:25;;;;;;;6.22;3.42;;;9.30;99.90;;;;;;5074238;28;20059;-81
2022/10/14 04:53:22;;;;;;;6.22;3.15;;;9.30;99.90;;;;;;5069488;28;20049;-81
2022/10/14 04:56:09;;;;;;;5.18;3.90;;;9.30;99.90;;;;;;5072946;28;20579;-83
2022/10/14 04:58:45;;;;;;;6.18;3.30;;;9.30;99.90;;;;;;5055037;28;20063;-81
2022/10/14 05:01:13;;;;;;;6.32;3.03;;;9.30;99.90;;;;;;5036106;28;20478;-81
2022/10/14 05:03:42;;;;;;;7.78;3.05;;;9.30;99.90;;;;;;5054108;28;20049;-81
2022/10/14 05:06:09;;;;;;;4.70;3.05;;;9.30;99.90;;;;;;5072892;28;20056;-83
2022/10/14 05:08:40;;;;;;;7.00;3.28;;;9.30;99.90;;;;;;5072218;28;20492;-81
2022/10/14 05:11:14;;;;;;;8.23;3.75;;;9.20;99.90;;;;;;5057558;28;20065;-83
2022/10/14 05:13:55;;;;;;;6.13;3.70;;;9.20;99.90;;;;;;5037230;28;20051;-81
2022/10/14 05:16:27;;;;;;;8.50;4.10;;;9.10;99.90;;;;;;5071419;28;20056;-82
2022/10/14 05:18:55;;;;;;;7.38;3.80;;;9.10;99.90;;;;;;5057652;28;20045;-81
2022/10/14 05:21:25;;;;;;;9.20;4.45;;;9.10;99.90;;;;;;5068056;28;20047;-85
2022/10/14 05:24:15;;;;;;;9.90;4.13;;;9.10;99.90;;;;;;5054103;28;20086;-84
2022/10/14 05:26:46;;;;;;;10.15;3.97;;;9.20;99.90;;;;;;5056066;28;20504;-82
2022/10/14 05:29:14;;;;;;;11.75;4.45;;;9.20;99.90;;;;;;5073586;28;20055;-82
2022/10/14 05:31:42;;;;;;;10.07;4.80;;;9.20;99.90;;;;;;5070097;28;20135;-81
2022/10/14 05:34:39;;;;;;;13.95;5.72;;;9.20;99.90;;;;;;5059916;28;20516;-79
2022/10/14 05:37:10;;;;;;;9.70;5.07;;;9.20;99.90;;;;;;5065866;28;20063;-80
2022/10/14 05:39:51;;;;;;;8.38;4.55;;;9.30;99.90;;;;;;5069913;28;20052;-80
2022/10/14 05:42:23;;;;;;;8.70;4.72;;;9.30;99.90;;;;;;5070489;28;20136;-80
2022/10/14 05:44:54;;;;;;;13.75;5.97;;;9.30;99.90;;;;;;5060947;28;20131;-78
2022/10/14 05:47:24;;;;;;;11.00;4.57;;;9.30;99.90;;;;;;5065743;28;20059;-78
2022/10/14 05:49:57;;;;;;;16.00;5.63;;;9.30;99.90;;;;;;5072551;28;20566;-78
2022/10/14 05:52:25;;;;;;;9.40;5.18;;;9.20;99.90;;;;;;5070348;28;20120;-79
2022/10/14 05:54:53;;;;;;;12.68;4.57;;;9.20;99.90;;;;;;5069477;28;20043;-78
2022/10/14 05:57:27;;;;;;;12.32;4.88;;;9.30;99.90;;;;;;5070675;28;21389;-78
2022/10/14 05:59:57;;;;;;;10.68;3.72;;;9.20;99.90;;;;;;5068462;28;20070;-78
2022/10/14 06:02:24;;;;;;;10.63;3.60;;;9.30;99.90;;;;;;5065337;28;20135;-78
2022/10/14 06:04:54;;;;;;;9.48;4.40;;;9.30;99.90;;;;;;5049976;28;20542;-77
2022/10/14 06:07:21;;;;;;;13.30;4.22;;;9.30;99.90;;;;;;5066604;28;20147;-77
2022/10/14 06:09:49;;;;;;;8.50;4.43;;;9.20;99.90;;;;;;5070775;28;20143;-79
2022/10/14 06:12:16;;;;;;;11.55;4.25;;;9.20;99.90;;;;;;5073794;28;20094;-80
2022/10/14 06:14:44;;;;;;;9.43;4.78;;;9.20;99.90;;;;;;5071419;28;20496;-82
2022/10/14 06:17:12;;;;;;;8.73;5.15;;;9.30;99.90;;;;;;5055074;28;20048;-82
2022/10/14 06:19:39;;;;;;;10.52;4.40;;;9.30;99.90;;;;;;5069661;28;20492;-78
2022/10/14 06:22:06;;;;;;;7.95;4.88;;;9.40;99.90;;;;;;5063757;28;20048;-77
2022/10/14 06:24:33;;;;;;;13.38;4.65;;;9.40;99.90;;;;;;5065393;28;20508;-77
2022/10/14 06:27:01;;;;;;;9.80;4.53;;;9.40;99.90;;;;;;5067923;28;20047;-76
2022/10/14 06:29:31;;;;;;;11.95;4.82;;;9.40;99.90;;;;;;5068615;28;20139;-77
2022/10/14 06:32:00;;;;;;;8.02;4.93;;;9.40;99.90;;;;;;5071630;28;20083;-77
2022/10/14 06:34:27;;;;;;;9.80;4.57;;;9.40;99.90;;;;;;5067077;28;20076;-77
2022/10/14 06:36:54;;;;;;;8.85;5.20;;;9.40;99.90;;;;;;5069135;28;20041;-77
2022/10/14 06:39:22;;;;;;;10.82;5.13;;;9.40;99.90;;;;;;5068456;28;20118;-77
2022/10/14 06:41:49;;;;;;;8.77;5.32;;;9.40;99.90;;;;;;5067393;28;20119;-78
2022/10/14 06:44:20;;;;;;;8.60;5.82;;;9.50;99.90;;;;;;5067683;28;20100;-77
2022/10/14 06:46:47;;;;;;;10.43;6.95;;;9.50;99.90;;;;;;5065971;28;20558;-84
2022/10/14 06:49:16;;;;;;;13.27;7.90;;;9.50;99.90;;;;;;5070406;28;20133;-82
2022/10/14 06:51:43;;;;;;;11.15;7.13;;;9.40;99.90;;;;;;5071319;28;20041;-81
2022/10/14 06:54:10;;;;;;;9.60;6.82;;;9.40;99.90;;;;;;5069454;28;20044;-81
2022/10/14 06:56:38;;;;;;;13.52;6.93;;;9.40;99.90;;;;;;5087488;28;20075;-83
2022/10/14 06:59:06;;;;;;;13.57;6.72;;;9.50;99.90;;;;;;5074411;28;20118;-83
2022/10/14 07:01:33;;;;;;;10.73;6.80;;;9.60;99.90;;;;;;5077632;28;20654;-84
2022/10/14 07:04:00;;;;;;;11.05;6.43;;;9.70;99.90;;;;;;5069156;28;20397;-81
2022/10/14 07:06:28;;;;;;;14.18;5.97;;;9.80;99.90;;;;;;5061178;28;20619;-84
2022/10/14 07:08:56;;;;;;;8.00;6.50;;;9.90;99.90;;;;;;5064932;28;20050;-80
2022/10/14 07:11:23;;;;;;;7.88;5.22;;;9.90;99.90;;;;;;5070786;28;20419;-83
2022/10/14 07:13:50;;;;;;;10.55;6.32;;;10.00;99.90;;;;;;5067738;28;20048;-81
2022/10/14 07:16:18;;;;;;;9.35;5.10;;;10.00;99.90;;;;;;5064384;28;20084;-78
2022/10/14 07:18:45;;;;;;;13.73;5.57;;;10.00;99.90;;;;;;5063940;28;20694;-79
2022/10/14 07:21:13;;;;;;;11.68;5.13;;;10.00;99.90;;;;;;5063846;28;20054;-84
2022/10/14 07:23:41;;;;;;;12.73;4.88;;;10.10;99.90;;;;;;5067621;28;20045;-83
2022/10/14 07:26:08;;;;;;;8.38;4.95;;;10.10;99.90;;;;;;5066632;28;20074;-83
2022/10/14 07:28:36;;;;;;;11.82;5.18;;;10.10;99.90;;;;;;5070259;28;20490;-80
2022/10/14 07:31:07;;;;;;;7.72;5.05;;;10.20;99.90;;;;;;5070560;28;20166;-80
2022/10/14 07:33:36;;;;;;;10.63;4.95;;;10.20;99.90;;;;;;5075042;28;20048;-84
2022/10/14 07:36:04;;;;;;;7.72;4.93;;;10.20;99.90;;;;;;5072715;28;20052;-85
2022/10/14 07:38:32;;;;;;;9.68;5.35;;;10.20;99.90;;;;;;5071501;28;20044;-83
2022/10/14 07:41:03;;;;;;;6.53;4.47;;;10.30;99.90;;;;;;5073329;28;20056;-82
2022/10/14 07:43:32;;;;;;;10.50;4.90;;;10.20;99.90;;;;;;5073671;28;20052;-83
2022/10/14 07:46:01;;;;;;;7.40;4.38;;;10.20;99.90;;;;;;5072051;28;20481;-82
2022/10/14 07:48:29;;;;;;;10.73;4.50;;;10.40;99.90;;;;;;5067476;28;20098;-78
2022/10/14 07:50:57;;;;;;;8.35;4.60;;;10.40;99.90;;;;;;5066129;28;20056;-79
2022/10/14 07:53:25;;;;;;;9.60;4.43;;;10.50;99.90;;;;;;5065657;28;20044;-79
2022/10/14 07:55:56;;;;;;;10.68;5.10;;;10.50;99.90;;;;;;5063973;28;20518;-78
2022/10/14 07:58:27;;;;;;;8.05;4.60;;;10.60;99.90;;;;;;5063824;28;20049;-77
2022/10/14 08:00:55;;;;;;;7.35;5.10;;;10.60;99.90;;;;;;5065431;28;20496;-77
2022/10/14 08:03:24;;;;;;;11.13;4.75;;;10.60;99.90;;;;;;5065185;28;20044;-78
2022/10/14 08:05:59;;;;;;;8.82;5.00;;;10.60;99.90;;;;;;5047146;28;20072;-79
2022/10/14 08:08:27;;;;;;;12.75;4.97;;;10.70;99.90;;;;;;5065740;28;20097;-79
2022/10/14 08:11:00;;;;;;;8.48;5.82;;;10.70;99.90;;;;;;5064098;28;20075;-78
2022/10/14 08:13:30;;;;;;;11.10;5.55;;;10.80;99.90;;;;;;5066720;28;20048;-78
2022/10/14 08:16:00;;;;;;;11.55;5.97;;;10.80;99.90;;;;;;5069579;28;20041;-79
2022/10/14 08:18:28;;;;;;;8.93;5.40;;;10.90;99.90;;;;;;5068047;28;20072;-78
2022/10/14 08:20:55;;;;;;;12.00;5.57;;;11.00;99.90;;;;;;5068077;28;20041;-78
2022/10/14 08:23:22;;;;;;;8.27;4.85;;;11.00;99.90;;;;;;5067301;28;20052;-79
2022/10/14 08:25:50;;;;;;;10.43;5.32;;;11.20;99.90;;;;;;5067015;28;20131;-81
2022/10/14 08:28:17;;;;;;;12.82;5.65;;;11.30;99.90;;;;;;5068201;28;20040;-78
2022/10/14 08:30:47;;;;;;;9.57;5.40;;;11.30;99.90;;;;;;5068728;28;20040;-79
2022/10/14 08:33:15;;;;;;;11.88;5.05;;;11.30;99.90;;;;;;5072482;28;20051;-84
2022/10/14 08:35:42;;;;;;;12.30;5.13;;;11.40;99.90;;;;;;5078071;28;20045;-80
2022/10/14 08:38:11;;;;;;;9.65;5.82;;;11.50;99.90;;;;;;5068746;28;20074;-79
2022/10/14 08:40:53;;;;;;;11.30;5.30;;;11.60;99.90;;;;;;5069513;28;20041;-78
2022/10/14 08:43:26;;;;;;;10.43;5.75;;;11.70;99.90;;;;;;5068321;28;20037;-81
2022/10/14 08:46:00;;;;;;;11.65;5.35;;;11.70;99.90;;;;;;5069457;28;20155;-78
2022/10/14 08:48:29;;;;;;;10.20;6.10;;;11.70;99.90;;;;;;5069776;28;20122;-79
2022/10/14 08:51:03;;;;;;;11.05;5.90;;;11.80;99.90;;;;;;5070719;28;20167;-79
2022/10/14 08:53:37;;;;;;;10.77;5.80;;;11.80;99.90;;;;;;5069150;28;20139;-80
2022/10/14 08:56:06;;;;;;;6.40;5.35;;;11.80;99.90;;;;;;5068495;28;20049;-78
2022/10/14 08:58:37;;;;;;;13.75;6.25;;;11.80;99.90;;;;;;5068068;28;20041;-78
2022/10/14 09:01:16;;;;;;;10.23;6.75;;;11.80;99.90;;;;;;5068058;28;20045;-77
2022/10/14 09:03:43;;;;;;;11.75;6.20;;;11.70;99.90;;;;;;5068818;28;20634;-78
2022/10/14 09:06:15;;;;;;;12.30;6.30;;;11.80;99.90;;;;;;5069934;28;20094;-79
2022/10/14 09:08:47;;;;;;;11.52;5.95;;;11.80;99.90;;;;;;5070976;28;20046;-81
2022/10/14 09:11:17;;;;;;;12.07;5.80;;;11.80;99.90;;;;;;5071633;28;20044;-81
2022/10/14 09:13:47;;;;;;;18.90;6.00;;;11.90;99.90;;;;;;5071378;28;20047;-80
2022/10/14 09:16:20;;;;;;;13.95;5.93;;;11.90;99.90;;;;;;5069497;28;20044;-80
2022/10/14 09:18:50;;;;;;;13.75;5.80;;;12.00;99.90;;;;;;5070828;28;20049;-79
2022/10/14 09:21:31;;;;;;;10.80;6.25;;;12.00;99.90;;;;;;5069954;28;20059;-78
2022/10/14 09:24:02;;;;;;;14.82;7.05;;;12.00;99.90;;;;;;5069219;28;20106;-79
2022/10/14 09:26:39;;;;;;;14.35;5.47;;;12.10;99.90;;;;;;5070606;28;20092;-80
2022/10/14 09:29:14;;;;;;;15.75;7.05;;;12.30;99.90;;;;;;5069426;28;20083;-78
2022/10/14 09:31:43;;;;;;;10.43;6.68;;;12.40;99.90;;;;;;5069168;28;20045;-80
2022/10/14 09:34:16;;;;;;;11.63;6.53;;;12.60;99.90;;;;;;5051355;28;20131;-77
2022/10/14 09:36:44;;;;;;;13.70;6.60;;;12.70;99.90;;;;;;5070403;28;20106;-83
2022/10/14 09:39:13;;;;;;;13.45;6.40;;;12.80;99.90;;;;;;5071001;28;20094;-82
2022/10/14 09:41:40;;;;;;;13.82;6.57;;;13.00;99.90;;;;;;5075454;28;20068;-83
2022/10/14 09:44:20;;;;;;;15.30;6.63;;;13.00;99.90;;;;;;5070391;28;20098;-84
2022/10/14 09:46:53;;;;;;;12.40;5.30;;;12.90;99.90;;;;;;5068480;28;20056;-84
2022/10/14 09:49:24;;;;;;;11.63;4.88;;;12.70;99.90;;;;;;5069273;28;20052;-80
2022/10/14 09:51:51;;;;;;;11.88;4.35;;;12.60;99.90;;;;;;5069217;28;20479;-79
2022/10/14 09:54:24;;;;;;;13.52;5.45;;;12.50;99.90;;;;;;5071102;28;20044;-80
2022/10/14 09:56:59;;;;;;;10.00;4.95;;;12.50;99.90;;;;;;5068446;28;20066;-81
2022/10/14 09:59:28;;;;;;;12.63;5.22;;;12.40;99.90;;;;;;5068553;28;20605;-82
2022/10/14 10:01:59;;;;;;;7.80;4.07;;;12.40;99.90;;;;;;5068934;28;20041;-81
2022/10/14 10:04:37;;;;;;;7.28;3.90;;;12.30;99.90;;;;;;5070829;28;20052;-79
2022/10/14 10:07:07;;;;;;;7.05;3.92;;;12.30;99.90;;;;;;5070623;28;20060;-80
2022/10/14 10:09:34;;;;;;;10.63;4.63;;;12.30;99.90;;;;;;5069872;28;20553;-83
2022/10/14 10:12:23;;;;;;;7.50;4.10;;;12.30;99.90;;;;;;5072012;28;20044;-83
2022/10/14 10:15:02;;;;;;;9.05;4.40;;;12.30;99.90;;;;;;5074664;28;20166;-84
2022/10/14 10:17:34;;;;;;;10.88;5.28;;;12.40;99.90;;;;;;5075218;28;20044;-84
2022/10/14 10:20:19;;;;;;;7.20;3.90;;;12.30;99.90;;;;;;5081319;28;20106;-85
2022/10/14 10:22:47;;;;;;;11.35;4.40;;;12.30;99.90;;;;;;5072565;28;20051;-84
2022/10/14 10:25:20;;;;;;;9.55;4.43;;;12.30;99.90;;;;;;5071764;28;20080;-84
2022/10/14 10:27:50;;;;;;;8.80;4.57;;;12.20;99.90;;;;;;5071079;28;20131;-83
2022/10/14 10:30:23;;;;;;;8.20;4.13;;;12.10;99.90;;;;;;5075205;28;20041;-85
2022/10/14 10:33:02;;;;;;;8.38;4.50;;;12.20;99.90;;;;;;5078445;28;20417;-84
2022/10/14 10:35:49;;;;;;;12.48;4.03;;;12.20;99.90;;;;;;5071560;28;20067;-83
2022/10/14 10:38:22;;;;;;;11.30;4.68;;;12.20;99.90;;;;;;5069704;28;20515;-82
2022/10/14 10:41:06;;;;;;;12.77;5.35;;;12.20;99.90;;;;;;5069829;28;20106;-80
2022/10/14 10:43:51;;;;;;;10.52;4.05;;;12.20;99.90;;;;;;5067087;28;20768;-80
2022/10/14 10:46:40;;;;;;;10.20;4.53;;;12.20;99.90;;;;;;5070710;28;20040;-81
2022/10/14 10:49:18;;;;;;;18.45;4.47;;;12.20;99.90;;;;;;5070268;28;20052;-81
2022/10/14 10:51:54;;;;;;;11.23;4.47;;;12.20;99.90;;;;;;5065556;28;20621;-78
2022/10/14 10:54:33;;;;;;;9.32;4.68;;;12.20;99.90;;;;;;5066346;28;20063;-78
2022/10/14 10:57:10;;;;;;;6.88;3.60;;;12.20;99.90;;;;;;5069339;28;20547;-79
2022/10/14 10:59:48;;;;;;;9.82;3.90;;;12.20;99.90;;;;;;5068445;28;20094;-78
2022/10/14 11:02:50;;;;;;;13.45;3.90;;;12.20;99.90;;;;;;5048069;28;20402;-79
2022/10/14 11:05:29;;;;;;;8.90;4.00;;;12.20;99.90;;;;;;5046147;28;20045;-77
2022/10/14 11:13:52;;;;;;;11.95;4.38;;;12.10;99.90;;;;;;5070507;28;20053;-81
2022/10/14 11:16:28;;;;;;;9.38;3.67;;;12.10;99.90;;;;;;5067900;28;20044;-81
2022/10/14 11:19:06;;;;;;;12.13;4.35;;;12.10;99.90;;;;;;5066392;28;20086;-82
2022/10/14 11:21:45;;;;;;;10.75;4.15;;;12.10;99.90;;;;;;5068942;28;20114;-83
2022/10/14 11:24:22;;;;;;;9.48;4.03;;;12.00;99.90;;;;;;5069178;28;20059;-82
2022/10/14 11:27:01;;;;;;;9.90;4.13;;;12.00;99.90;;;;;;5066025;28;20041;-83
2022/10/14 11:30:01;;;;;;;10.32;3.53;;;12.00;99.90;;;;;;5073339;28;20148;-83
2022/10/14 11:32:39;;;;;;;13.43;3.40;;;12.10;99.90;;;;;;5014853;28;20037;-82
2022/10/14 11:35:20;;;;;;;9.45;3.83;;;12.10;99.90;;;;;;5076894;28;20048;-85
2022/10/14 11:38:04;;;;;;;18.48;4.22;;;12.10;99.90;;;;;;5071284;28;20539;-85
2022/10/14 11:40:40;;;;;;;9.20;4.38;;;12.10;99.90;;;;;;5069858;28;20477;-82
2022/10/14 11:43:17;;;;;;;8.52;4.07;;;12.20;99.90;;;;;;5079631;28;20032;-83
2022/10/14 11:45:52;;;;;;;10.77;3.95;;;12.20;99.90;;;;;;5072220;28;20067;-83
2022/10/14 11:48:29;;;;;;;13.80;4.18;;;12.10;99.90;;;;;;5069714;28;20562;-83
2022/10/14 11:51:06;;;;;;;10.93;3.72;;;12.20;99.90;;;;;;5070413;28;20048;-84
2022/10/14 11:53:43;;;;;;;9.30;3.80;;;12.20;99.90;;;;;;5071579;28;20047;-83
2022/10/14 11:56:24;;;;;;;8.25;4.05;;;12.20;99.90;;;;;;5077497;28;20052;-85
2022/10/14 11:58:53;;;;;;;10.00;4.20;;;12.10;99.90;;;;;;5076434;28;20140;-82
2022/10/14 12:01:29;;;;;;;8.90;4.50;;;12.20;99.90;;;;;;5074353;28;20072;-81
2022/10/14 12:04:03;;;;;;;11.88;3.78;;;12.20;99.90;;;;;;5074594;28;20047;-84
2022/10/14 12:06:41;;;;;;;14.52;4.72;;;12.20;99.90;;;;;;5075877;28;20044;-83
2022/10/14 12:09:20;;;;;;;8.57;3.50;;;12.20;99.90;;;;;;5081166;28;20078;-82
2022/10/14 12:11:51;;;;;;;8.18;3.30;;;12.20;99.90;;;;;;5070847;28;20044;-83
2022/10/14 12:14:25;;;;;;;7.63;3.83;;;12.20;99.90;;;;;;5078202;28;20074;-84
2022/10/14 12:16:53;;;;;;;12.38;3.65;;;12.20;99.90;;;;;;5075901;28;20044;-83
2022/10/14 12:19:25;;;;;;;9.02;3.92;;;12.20;99.90;;;;;;5073598;28;20476;-84
2022/10/14 12:22:00;;;;;;;7.93;4.40;;;12.20;99.90;;;;;;5069384;28;20097;-83
2022/10/14 12:24:33;;;;;;;12.40;3.90;;;12.20;99.90;;;;;;5071308;28;20110;-85
2022/10/14 12:27:04;;;;;;;8.05;4.18;;;12.30;99.90;;;;;;5073711;28;20094;-86
2022/10/14 12:29:35;;;;;;;9.02;4.10;;;12.30;99.90;;;;;;5074287;28;20063;-83
2022/10/14 12:32:15;;;;;;;10.87;3.50;;;12.40;99.90;;;;;;5070312;28;20076;-84
2022/10/14 12:34:45;;;;;;;11.02;3.40;;;12.40;99.90;;;;;;5072563;28;20044;-85
2022/10/14 12:37:41;;;;;;;9.60;3.65;;;12.40;99.90;;;;;;5069144;28;20512;-78
2022/10/14 12:40:30;;;;;;;8.43;4.35;;;12.40;99.90;;;;;;5073464;28;20044;-80
2022/10/14 12:43:23;;;;;;;10.57;4.07;;;12.50;99.90;;;;;;5068647;28;20044;-74
2022/10/14 12:46:13;;;;;;;7.03;3.08;;;12.40;99.90;;;;;;5068802;28;20049;-73
2022/10/14 12:48:49;;;;;;;7.65;3.50;;;12.40;99.90;;;;;;5065724;28;20090;-74
2022/10/14 12:51:19;;;;;;;5.70;3.28;;;12.40;99.90;;;;;;5067597;28;20045;-74
2022/10/14 12:53:56;;;;;;;6.60;3.72;;;12.30;99.90;;;;;;5063990;28;20052;-79
2022/10/14 12:56:36;;;;;;;11.02;2.90;;;12.30;99.90;;;;;;5066965;28;20045;-80
2022/10/14 12:59:06;;;;;;;9.70;3.40;;;12.20;99.90;;;;;;5067604;28;20040;-80
2022/10/14 13:01:38;;;;;;;5.57;3.90;;;12.30;99.90;;;;;;5070373;28;20429;-75
2022/10/14 13:04:07;;;;;;;7.50;3.90;;;12.20;99.90;;;;;;5070289;28;20070;-79
2022/10/14 13:06:38;;;;;;;9.15;3.40;;;12.10;99.90;;;;;;5068928;28;20451;-79
2022/10/14 13:09:35;;;;;;;6.50;3.20;;;12.10;99.90;;;;;;5100159;28;20114;-81
2022/10/14 13:12:42;;;;;;;9.38;3.50;;;12.00;99.90;;;;;;5070990;28;20053;-74
2022/10/14 13:15:34;;;;;;;8.77;3.10;;;12.00;99.90;;;;;;5069067;28;20057;-76
2022/10/14 13:18:38;;;;;;;5.55;3.28;;;12.00;99.90;;;;;;5068009;28;20106;-81
2022/10/14 13:21:10;;;;;;;8.90;2.97;;;12.10;99.90;;;;;;5099361;28;20048;-80
2022/10/14 13:23:41;;;;;;;9.23;3.53;;;12.10;99.90;;;;;;5067550;28;20059;-73